Terminal Aerodrome Forecast
Issued by NWS Cleveland, OH

Home | Current Version | Previous Version | Graphics & Text | Print | Product List | Glossary On
Versions: 1 2 3 4 5 6 7 8 9 10 11 12 13 14 15 16 17 18 19 20
000
FTUS41 KCLE 272300
TAFCAK
TAF
KCAK 272336Z 2800/2824 24010KT P6SM BKN040 OVC100
     FM280300 29006KT P6SM OVC040
     FM280800 29006KT 5SM BR OVC020
     FM281200 31010KT 5SM BR OVC008
     FM281600 33012G20KT P6SM OVC015=

USA.gov is the U.S. government's official web portal to all federal, state and local government web resources and services.